createdAt,value
2018-05-11T00:01:17.311Z,12.43
2018-05-11T00:03:45.559Z,12.60
2018-05-11T00:06:14.571Z,12.27
2018-05-11T00:08:42.813Z,12.20
2018-05-11T00:11:11.061Z,12.30
2018-05-11T00:13:39.292Z,12.10
2018-05-11T00:16:07.642Z,13.27
2018-05-11T00:18:35.873Z,11.60
2018-05-11T00:21:04.119Z,12.87
2018-05-11T00:23:32.452Z,13.00
2018-05-11T00:26:01.388Z,13.27
2018-05-11T00:28:29.614Z,13.80
2018-05-11T00:30:57.875Z,15.37
2018-05-11T00:33:26.103Z,16.07
2018-05-11T00:35:54.351Z,16.83
2018-05-11T00:38:23.347Z,18.30
2018-05-11T00:40:52.648Z,18.97
2018-05-11T00:43:21.651Z,19.70
2018-05-11T00:45:50.668Z,19.43
2018-05-11T00:48:18.904Z,19.80
2018-05-11T00:50:47.920Z,19.73
2018-05-11T00:53:16.160Z,21.03
2018-05-11T00:55:49.342Z,22.50
2018-05-11T00:58:17.575Z,21.30
2018-05-11T01:00:45.822Z,21.93
2018-05-11T01:03:14.055Z,22.50
2018-05-11T01:05:42.306Z,21.63
2018-05-11T01:08:10.545Z,21.83
2018-05-11T01:10:38.803Z,23.27
2018-05-11T01:13:07.808Z,22.23
2018-05-11T01:15:37.568Z,22.30
2018-05-11T01:18:05.801Z,23.67
2018-05-11T01:20:34.049Z,22.90
2018-05-11T01:23:03.063Z,23.00
2018-05-11T01:25:31.727Z,23.13
2018-05-11T01:28:00.723Z,23.43
2018-05-11T01:30:29.741Z,23.70
2018-05-11T01:32:57.983Z,23.23
2018-05-11T01:35:26.998Z,23.33
2018-05-11T01:37:55.240Z,23.30
2018-05-11T01:40:23.483Z,23.07
2018-05-11T01:42:51.728Z,24.43
2018-05-11T01:45:19.971Z,24.07
2018-05-11T01:47:48.973Z,22.53
2018-05-11T01:50:17.992Z,23.30
2018-05-11T01:52:46.263Z,23.77
2018-05-11T01:55:15.236Z,22.50
2018-05-11T01:57:44.247Z,22.10
2018-05-11T02:00:12.489Z,22.07
2018-05-11T02:02:41.499Z,22.20
2018-05-11T02:05:09.746Z,21.67
2018-05-11T02:07:37.995Z,22.93
2018-05-11T02:10:06.226Z,22.33
2018-05-11T02:12:34.480Z,23.03
2018-05-11T02:15:03.484Z,22.27
2018-05-11T02:17:31.741Z,21.90
2018-05-11T02:20:00.739Z,22.70
2018-05-11T02:22:29.759Z,22.23
2018-05-11T02:24:57.998Z,22.87
2018-05-11T02:27:27.031Z,22.63
2018-05-11T02:29:55.259Z,22.73
2018-05-11T02:32:24.277Z,23.13
2018-05-11T02:34:52.518Z,23.57
2018-05-11T02:37:20.767Z,22.53
2018-05-11T02:39:49.018Z,22.80
2018-05-11T02:42:17.279Z,23.00
2018-05-11T02:44:45.513Z,22.30
2018-05-11T02:47:13.772Z,21.77
2018-05-11T02:49:42.012Z,22.50
2018-05-11T02:52:10.256Z,22.67
2018-05-11T02:54:39.264Z,22.50
2018-05-11T02:57:07.525Z,22.37
2018-05-11T02:59:36.535Z,23.23
2018-05-11T03:02:04.788Z,22.90
2018-05-11T03:04:33.790Z,23.20
2018-05-11T03:07:02.043Z,23.70
2018-05-11T03:09:31.047Z,23.30
2018-05-11T03:12:00.059Z,23.00
2018-05-11T03:14:28.295Z,23.87
2018-05-11T03:16:57.311Z,24.13
2018-05-11T03:19:25.968Z,23.37
2018-05-11T03:21:54.191Z,24.83
2018-05-11T03:24:22.424Z,24.37
2018-05-11T03:26:51.459Z,24.80
2018-05-11T03:29:19.690Z,24.70
2018-05-11T03:31:48.694Z,24.77
2018-05-11T03:34:16.939Z,24.27
2018-05-11T03:36:45.176Z,24.47
2018-05-11T03:39:13.427Z,24.10
2018-05-11T03:41:41.670Z,23.77
2018-05-11T03:44:10.774Z,23.53
2018-05-11T03:46:39.777Z,23.33
2018-05-11T03:49:08.787Z,24.80
2018-05-11T03:51:37.028Z,25.03
2018-05-11T03:54:06.047Z,25.67
2018-05-11T03:56:34.295Z,25.40
2018-05-11T03:59:03.312Z,25.27
2018-05-11T04:01:43.391Z,26.97
2018-05-11T04:04:23.587Z,25.87
2018-05-11T04:07:05.311Z,26.43
2018-05-11T04:09:33.550Z,26.07
2018-05-11T04:12:02.563Z,26.33
2018-05-11T04:14:31.118Z,26.60
2018-05-11T04:16:59.337Z,25.90
2018-05-11T04:19:27.586Z,23.40
2018-05-11T04:21:56.583Z,22.77
2018-05-11T04:24:24.834Z,22.97
2018-05-11T04:26:53.839Z,21.77
2018-05-11T04:29:22.862Z,22.17
2018-05-11T04:31:51.092Z,21.33
2018-05-11T04:34:20.104Z,19.67
2018-05-11T04:36:48.351Z,19.17
2018-05-11T04:39:16.622Z,18.30
2018-05-11T04:41:44.849Z,18.77
2018-05-11T04:44:13.086Z,17.20
2018-05-11T04:46:42.106Z,16.20
2018-05-11T04:49:10.351Z,15.47
2018-05-11T04:51:39.372Z,13.33
2018-05-11T04:54:07.619Z,13.77
2018-05-11T04:56:36.637Z,12.43
2018-05-11T04:59:04.886Z,12.93
2018-05-11T05:01:33.911Z,13.03
2018-05-11T05:04:02.150Z,13.03
2018-05-11T05:06:31.165Z,14.33
2018-05-11T05:08:59.402Z,14.03
2018-05-11T05:11:27.652Z,15.00
2018-05-11T05:13:55.886Z,15.47
2018-05-11T05:16:24.147Z,15.37
2018-05-11T05:18:53.147Z,14.97
2018-05-11T05:21:21.403Z,15.37
2018-05-11T05:23:50.406Z,15.50
2018-05-11T05:26:19.015Z,15.23
2018-05-11T05:28:47.251Z,15.63
2018-05-11T05:31:16.275Z,14.63
2018-05-11T05:33:44.514Z,14.77
2018-05-11T05:36:13.545Z,14.53
2018-05-11T05:38:41.778Z,13.60
2018-05-11T05:41:10.834Z,14.47
2018-05-11T05:43:39.088Z,14.10
2018-05-11T05:46:07.334Z,14.87
2018-05-11T05:48:35.578Z,14.53
2018-05-11T05:51:03.810Z,14.67
2018-05-11T05:53:32.059Z,15.30
2018-05-11T05:56:00.350Z,15.87
2018-05-11T05:58:28.653Z,16.37
2018-05-11T06:00:57.594Z,17.23
2018-05-11T06:03:26.608Z,16.43
2018-05-11T06:05:54.852Z,16.30
2018-05-11T06:08:23.869Z,16.80
2018-05-11T06:10:52.276Z,15.83
2018-05-11T06:13:20.438Z,15.50
2018-05-11T06:15:48.678Z,15.70
2018-05-11T06:18:17.337Z,15.80
2018-05-11T06:20:45.583Z,14.90
2018-05-11T06:23:13.818Z,15.93
2018-05-11T06:25:42.571Z,14.07
2018-05-11T06:28:10.791Z,14.47
2018-05-11T06:30:39.026Z,14.97
2018-05-11T06:33:08.043Z,14.57
2018-05-11T06:35:36.270Z,14.03
2018-05-11T06:38:04.525Z,13.87
2018-05-11T06:40:32.777Z,14.10
2018-05-11T06:43:01.011Z,14.33
2018-05-11T06:45:30.011Z,14.33
2018-05-11T06:47:59.040Z,14.20
2018-05-11T06:50:27.277Z,14.43
2018-05-11T06:52:56.298Z,13.73
2018-05-11T06:55:24.546Z,13.10
2018-05-11T06:57:53.787Z,12.03
2018-05-11T07:00:22.019Z,13.57
2018-05-11T07:02:51.051Z,12.07
2018-05-11T07:05:19.294Z,13.57
2018-05-11T07:07:47.555Z,11.40
2018-05-11T07:10:15.781Z,11.33
2018-05-11T07:12:45.028Z,10.90
2018-05-11T07:15:14.043Z,11.33
2018-05-11T07:17:42.283Z,11.50
2018-05-11T07:20:11.305Z,11.60
2018-05-11T07:22:40.053Z,11.77
2018-05-11T07:25:08.283Z,10.87
2018-05-11T07:27:36.522Z,10.53
2018-05-11T07:30:04.779Z,11.60
2018-05-11T07:32:33.796Z,11.33
2018-05-11T07:35:02.072Z,10.30
2018-05-11T07:37:31.063Z,10.67
2018-05-11T07:39:59.326Z,11.37
2018-05-11T07:42:28.323Z,10.77
2018-05-11T07:44:56.575Z,9.87
2018-05-11T07:47:25.578Z,10.07
2018-05-11T07:49:54.598Z,10.70
2018-05-11T07:52:22.848Z,10.50
2018-05-11T07:54:51.865Z,11.33
2018-05-11T07:57:20.099Z,11.47
2018-05-11T07:59:49.123Z,11.77
2018-05-11T08:02:17.368Z,10.47
2018-05-11T08:04:46.378Z,9.90
2018-05-11T08:07:14.613Z,10.40
2018-05-11T08:09:42.867Z,10.70
2018-05-11T08:12:11.879Z,10.83
2018-05-11T08:14:40.135Z,9.93
2018-05-11T08:17:08.373Z,9.47
2018-05-11T08:19:36.599Z,9.87
2018-05-11T08:22:04.842Z,8.97
2018-05-11T08:24:33.077Z,9.33
2018-05-11T08:27:02.144Z,9.00
2018-05-11T08:29:30.321Z,9.67
2018-05-11T08:31:58.563Z,9.43
2018-05-11T08:34:26.795Z,7.90
2018-05-11T08:36:55.813Z,7.57
2018-05-11T08:39:24.039Z,7.17
2018-05-11T08:41:52.280Z,7.60
2018-05-11T08:44:20.511Z,7.37
2018-05-11T08:46:49.523Z,7.40
2018-05-11T08:49:17.746Z,8.50
2018-05-11T08:51:45.996Z,8.20
2018-05-11T08:54:14.223Z,8.10
2018-05-11T08:56:43.235Z,8.60
2018-05-11T08:59:11.470Z,9.00
2018-05-11T09:01:39.765Z,7.90
2018-05-11T09:04:07.974Z,8.37
2018-05-11T09:06:36.232Z,8.70
2018-05-11T09:09:04.461Z,8.03
2018-05-11T09:11:32.709Z,7.83
2018-05-11T09:14:00.935Z,9.03
2018-05-11T09:16:29.209Z,9.07
2018-05-11T09:18:57.507Z,7.67
2018-05-11T09:21:25.791Z,7.80
2018-05-11T09:23:53.967Z,7.63
2018-05-11T09:26:22.217Z,6.63
2018-05-11T09:28:50.437Z,7.53
2018-05-11T09:31:18.685Z,8.27
2018-05-11T09:33:46.914Z,7.93
2018-05-11T09:36:15.919Z,7.83
2018-05-11T09:38:44.918Z,7.23
2018-05-11T09:41:13.152Z,7.13
2018-05-11T09:43:41.381Z,7.23
2018-05-11T09:46:09.623Z,6.93
2018-05-11T09:48:38.615Z,7.90
2018-05-11T09:51:07.644Z,8.30
2018-05-11T09:53:35.866Z,7.60
2018-05-11T09:56:05.244Z,6.77
2018-05-11T09:58:33.478Z,8.57
2018-05-11T10:01:01.703Z,8.50
2018-05-11T10:03:29.943Z,8.13
2018-05-11T10:05:58.175Z,9.37
2018-05-11T10:08:27.556Z,8.40
2018-05-11T10:10:55.762Z,8.40
2018-05-11T10:13:24.014Z,8.97
2018-05-11T10:15:53.006Z,5.70
2018-05-11T10:18:22.013Z,6.03
2018-05-11T10:20:51.317Z,5.70
2018-05-11T10:23:19.557Z,4.93
2018-05-11T10:25:48.077Z,6.03
2018-05-11T10:28:16.323Z,6.17
2018-05-11T10:30:45.315Z,6.40
2018-05-11T10:33:14.323Z,6.70
2018-05-11T10:35:42.547Z,6.00
2018-05-11T10:38:10.869Z,6.87
2018-05-11T10:40:39.011Z,6.57
2018-05-11T10:43:07.253Z,7.60
2018-05-11T10:45:35.483Z,7.50
2018-05-11T10:48:04.864Z,8.70
2018-05-11T10:50:33.067Z,8.03
2018-05-11T10:53:01.316Z,7.00
2018-05-11T10:55:29.538Z,6.93
2018-05-11T10:57:57.789Z,8.90
2018-05-11T11:00:26.015Z,8.93
2018-05-11T11:02:54.263Z,9.53
2018-05-11T11:05:22.492Z,9.87
2018-05-11T11:07:51.502Z,10.10
2018-05-11T11:10:19.744Z,12.03
2018-05-11T11:12:47.986Z,11.67
2018-05-11T11:15:16.232Z,11.10
2018-05-11T11:17:44.479Z,9.63
2018-05-11T11:20:13.487Z,10.13
2018-05-11T11:22:42.053Z,12.07
2018-05-11T11:25:11.059Z,11.83
2018-05-11T11:27:40.432Z,10.33
2018-05-11T11:30:08.639Z,11.80
2018-05-11T11:32:36.889Z,11.73
2018-05-11T11:35:05.904Z,11.67
2018-05-11T11:37:34.154Z,11.93
2018-05-11T11:40:03.163Z,11.57
2018-05-11T11:42:31.408Z,11.23
2018-05-11T11:44:59.651Z,11.43
2018-05-11T11:47:27.961Z,10.50
2018-05-11T11:49:56.145Z,10.57
2018-05-11T11:52:25.142Z,11.00
2018-05-11T11:54:54.159Z,10.60
2018-05-11T11:57:22.403Z,10.20
2018-05-11T11:59:51.419Z,11.30
2018-05-11T12:02:19.664Z,10.90
2018-05-11T12:04:48.679Z,10.13
2018-05-11T12:07:16.915Z,10.63
2018-05-11T12:09:45.164Z,10.00
2018-05-11T12:12:13.398Z,10.60
2018-05-11T12:14:41.656Z,10.30
2018-05-11T12:17:10.658Z,9.73
2018-05-11T12:19:38.905Z,9.87
2018-05-11T12:22:07.131Z,9.70
2018-05-11T12:24:35.374Z,9.43
2018-05-11T12:27:04.655Z,9.13
2018-05-11T12:29:32.905Z,9.70
2018-05-11T12:32:01.132Z,10.10
2018-05-11T12:34:29.383Z,10.40
2018-05-11T12:36:58.406Z,9.80
2018-05-11T12:39:26.657Z,9.37
2018-05-11T12:41:54.898Z,9.37
2018-05-11T12:44:23.147Z,10.57
2018-05-11T12:46:51.391Z,10.40
2018-05-11T12:49:19.635Z,9.90
2018-05-11T12:51:47.870Z,10.80
2018-05-11T12:54:16.127Z,10.83
2018-05-11T12:56:44.366Z,10.83
2018-05-11T12:59:13.387Z,11.57
2018-05-11T13:01:41.635Z,10.93
2018-05-11T13:04:10.660Z,11.63
2018-05-11T13:06:38.896Z,11.33
2018-05-11T13:09:07.915Z,11.07
2018-05-11T13:11:36.144Z,11.73
2018-05-11T13:14:04.439Z,10.93
2018-05-11T13:16:32.647Z,10.70
2018-05-11T13:19:00.908Z,10.60
2018-05-11T13:21:29.666Z,10.10
2018-05-11T13:23:57.891Z,10.17
2018-05-11T13:26:26.128Z,10.87
2018-05-11T13:28:55.145Z,9.73
2018-05-11T13:31:23.388Z,10.07
2018-05-11T13:33:52.407Z,9.90
2018-05-11T13:36:20.682Z,10.63
2018-05-11T13:38:49.672Z,10.40
2018-05-11T13:41:17.916Z,10.00
2018-05-11T13:43:46.936Z,9.93
2018-05-11T13:46:15.175Z,10.40
2018-05-11T13:48:43.417Z,10.90
2018-05-11T13:51:11.672Z,10.23
2018-05-11T13:53:39.910Z,10.00
2018-05-11T13:56:08.957Z,10.20
2018-05-11T13:58:37.171Z,10.53
2018-05-11T14:01:06.183Z,9.90
2018-05-11T14:03:34.422Z,10.17
2018-05-11T14:06:02.696Z,10.60
2018-05-11T14:08:30.904Z,10.73
2018-05-11T14:10:59.158Z,10.40
2018-05-11T14:13:28.153Z,10.63
2018-05-11T14:15:57.170Z,9.77
2018-05-11T14:18:25.407Z,11.53
2018-05-11T14:20:53.663Z,10.77
2018-05-11T14:23:21.894Z,11.37
2018-05-11T14:25:50.271Z,11.33
2018-05-11T14:28:18.534Z,10.37
2018-05-11T14:30:46.799Z,10.33
2018-05-11T14:33:15.802Z,9.90
2018-05-11T14:35:44.047Z,9.70
2018-05-11T14:38:12.280Z,9.17
2018-05-11T14:40:40.524Z,8.80
2018-05-11T14:43:08.747Z,9.57
2018-05-11T14:45:37.255Z,8.97
2018-05-11T14:48:05.480Z,7.93
2018-05-11T14:50:33.723Z,8.97
2018-05-11T14:53:01.950Z,7.80
2018-05-11T14:55:30.198Z,7.00
2018-05-11T14:57:58.419Z,7.50
2018-05-11T15:00:26.662Z,7.30
2018-05-11T15:02:54.888Z,7.40
2018-05-11T15:05:23.890Z,7.60
2018-05-11T15:07:52.128Z,7.20
2018-05-11T15:10:20.363Z,8.00
2018-05-11T15:12:48.598Z,7.53
2018-05-11T15:15:16.987Z,6.87
2018-05-11T15:17:46.083Z,7.13
2018-05-11T15:20:15.218Z,7.33
2018-05-11T15:22:43.557Z,6.90
2018-05-11T15:25:12.683Z,6.77
2018-05-11T15:27:41.264Z,6.70
2018-05-11T15:30:09.636Z,6.67
2018-05-11T15:32:37.984Z,7.00
2018-05-11T15:35:07.120Z,7.30
2018-05-11T15:37:35.506Z,7.07
2018-05-11T15:40:04.167Z,6.47
2018-05-11T15:42:32.573Z,7.07
2018-05-11T15:45:00.872Z,6.63
2018-05-11T15:47:29.180Z,7.10
2018-05-11T15:49:57.491Z,6.33
2018-05-11T15:52:25.736Z,6.70
2018-05-11T15:54:54.084Z,6.30
2018-05-11T15:57:22.487Z,6.40
2018-05-11T15:59:50.874Z,6.57
2018-05-11T16:02:19.277Z,6.77
2018-05-11T16:04:47.615Z,6.43
2018-05-11T16:07:16.080Z,6.50
2018-05-11T16:09:45.187Z,6.33
2018-05-11T16:12:13.566Z,6.77
2018-05-11T16:14:42.056Z,5.90
2018-05-11T16:17:10.538Z,6.70
2018-05-11T16:19:38.774Z,6.40
2018-05-11T16:22:07.018Z,6.70
2018-05-11T16:24:35.266Z,6.20
2018-05-11T16:27:03.515Z,6.23
2018-05-11T16:29:31.858Z,6.63
2018-05-11T16:32:00.965Z,6.00
2018-05-11T16:34:29.938Z,6.07
2018-05-11T16:36:59.008Z,6.23
2018-05-11T16:39:27.303Z,6.33
2018-05-11T16:41:56.397Z,6.07
2018-05-11T16:44:24.623Z,5.90
2018-05-11T16:46:52.846Z,6.40
2018-05-11T16:49:21.839Z,6.40
2018-05-11T16:51:50.855Z,5.77
2018-05-11T16:54:19.071Z,5.60
2018-05-11T16:56:47.308Z,5.80
2018-05-11T16:59:15.557Z,5.77
2018-05-11T17:01:43.786Z,5.63
2018-05-11T17:04:12.011Z,5.93
2018-05-11T17:06:41.139Z,5.33
2018-05-11T17:09:09.355Z,5.43
2018-05-11T17:11:37.592Z,5.80
2018-05-11T17:14:05.861Z,5.63
2018-05-11T17:16:34.149Z,5.27
2018-05-11T17:19:03.094Z,5.63
2018-05-11T17:21:32.099Z,5.80
2018-05-11T17:24:00.339Z,5.53
2018-05-11T17:26:28.578Z,5.80
2018-05-11T17:28:56.931Z,6.60
2018-05-11T17:31:25.175Z,5.20
2018-05-11T17:33:54.163Z,5.57
2018-05-11T17:36:23.551Z,5.87
2018-05-11T17:38:51.766Z,5.80
2018-05-11T17:41:20.064Z,5.63
2018-05-11T17:43:48.424Z,5.90
2018-05-11T17:46:16.703Z,5.33
2018-05-11T17:48:45.033Z,5.40
2018-05-11T17:51:15.198Z,5.57
2018-05-11T17:53:43.773Z,6.03
2018-05-11T17:56:12.287Z,6.00
2018-05-11T17:58:40.820Z,5.70
2018-05-11T18:01:09.124Z,6.00
2018-05-11T18:03:37.490Z,5.47
2018-05-11T18:06:06.164Z,5.93
2018-05-11T18:08:34.496Z,5.80
2018-05-11T18:11:04.378Z,5.53
2018-05-11T18:13:32.723Z,5.23
2018-05-11T18:16:00.956Z,5.43
2018-05-11T18:18:29.329Z,5.20
2018-05-11T18:20:57.724Z,4.97
2018-05-11T18:23:26.090Z,4.53
2018-05-11T18:25:54.347Z,4.73
2018-05-11T18:28:22.634Z,4.70
2018-05-11T18:30:51.971Z,5.40
2018-05-11T18:33:20.286Z,4.80
2018-05-11T18:35:48.722Z,5.13
2018-05-11T18:38:17.736Z,4.50
2018-05-11T18:40:46.289Z,4.60
2018-05-11T18:43:14.704Z,4.87
2018-05-11T18:45:42.990Z,4.60
2018-05-11T18:48:11.304Z,5.17
2018-05-11T18:50:39.532Z,5.67
2018-05-11T18:53:08.515Z,5.40
2018-05-11T18:55:36.577Z,5.60
2018-05-11T18:58:05.026Z,5.57
2018-05-11T19:00:33.309Z,5.80
2018-05-11T19:03:01.591Z,5.47
2018-05-11T19:05:29.840Z,5.80
2018-05-11T19:07:58.130Z,5.67
2018-05-11T19:10:27.184Z,5.43
2018-05-11T19:12:55.574Z,5.43
2018-05-11T19:15:24.685Z,5.90
2018-05-11T19:17:52.953Z,5.23
2018-05-11T19:20:21.208Z,5.50
2018-05-11T19:22:49.451Z,5.40
2018-05-11T19:25:17.678Z,5.87
2018-05-11T19:27:46.690Z,6.33
2018-05-11T19:30:14.928Z,6.60
2018-05-11T19:32:43.170Z,6.30
2018-05-11T19:35:11.400Z,6.60
2018-05-11T19:37:40.388Z,6.90
2018-05-11T19:40:09.399Z,6.63
2018-05-11T19:42:37.616Z,6.30
2018-05-11T19:45:05.855Z,7.13
2018-05-11T19:47:34.098Z,6.53
2018-05-11T19:50:03.112Z,6.57
2018-05-11T19:52:31.378Z,6.60
2018-05-11T19:55:00.140Z,6.43
2018-05-11T19:57:28.343Z,6.60
2018-05-11T19:59:56.613Z,7.10
2018-05-11T20:02:25.648Z,6.97
2018-05-11T20:04:53.891Z,7.37
2018-05-11T20:07:22.456Z,7.27
2018-05-11T20:09:50.766Z,7.20
2018-05-11T20:12:19.057Z,6.90
2018-05-11T20:14:47.286Z,6.57
2018-05-11T20:17:15.516Z,6.60
2018-05-11T20:19:43.755Z,7.00
2018-05-11T20:22:11.987Z,6.87
2018-05-11T20:24:41.302Z,7.73
2018-05-11T20:27:10.304Z,7.90
2018-05-11T20:29:39.302Z,7.73
2018-05-11T20:32:07.569Z,7.83
2018-05-11T20:34:35.811Z,8.03
2018-05-11T20:37:04.046Z,7.73
2018-05-11T20:39:32.291Z,8.47
2018-05-11T20:42:00.525Z,8.60
2018-05-11T20:44:28.762Z,8.47
2018-05-11T20:46:56.991Z,8.83
2018-05-11T20:49:26.012Z,9.43
2018-05-11T20:51:54.459Z,8.80
2018-05-11T20:54:22.695Z,9.40
2018-05-11T20:56:50.930Z,9.27
2018-05-11T20:59:19.588Z,9.70
2018-05-11T21:01:47.911Z,10.47
2018-05-11T21:04:16.070Z,10.07
2018-05-11T21:06:44.314Z,10.00
2018-05-11T21:09:13.336Z,10.70
2018-05-11T21:11:41.578Z,11.33
2018-05-11T21:14:10.586Z,11.63
2018-05-11T21:16:38.829Z,12.33
2018-05-11T21:19:07.079Z,12.40
2018-05-11T21:21:35.336Z,12.37
2018-05-11T21:24:03.804Z,13.30
2018-05-11T21:26:32.042Z,11.90
2018-05-11T21:29:01.080Z,12.63
2018-05-11T21:31:29.319Z,12.23
2018-05-11T21:33:57.554Z,13.63
2018-05-11T21:36:25.814Z,12.93
2018-05-11T21:38:54.047Z,12.83
2018-05-11T21:41:22.315Z,14.13
2018-05-11T21:43:51.358Z,13.43
2018-05-11T21:46:19.603Z,14.07
2018-05-11T21:48:47.846Z,13.47
2018-05-11T21:51:16.857Z,15.03
2018-05-11T21:53:45.099Z,14.77
2018-05-11T21:56:13.358Z,13.60
2018-05-11T21:58:41.591Z,14.77
2018-05-11T22:01:09.845Z,14.50
2018-05-11T22:03:38.083Z,14.70
2018-05-11T22:06:06.338Z,15.03
2018-05-11T22:08:34.566Z,14.70
2018-05-11T22:11:03.581Z,15.10
2018-05-11T22:13:32.549Z,15.07
2018-05-11T22:16:01.551Z,15.70
2018-05-11T22:18:29.796Z,14.60
2018-05-11T22:20:58.035Z,15.50
2018-05-11T22:23:26.284Z,14.23
2018-05-11T22:25:54.542Z,14.97
2018-05-11T22:28:22.787Z,15.27
2018-05-11T22:30:51.043Z,14.80
2018-05-11T22:33:19.336Z,14.27
2018-05-11T22:35:47.559Z,14.63
2018-05-11T22:38:15.795Z,15.37
2018-05-11T22:40:44.814Z,13.83
2018-05-11T22:43:13.048Z,13.77
2018-05-11T22:45:41.296Z,15.00
2018-05-11T22:48:09.539Z,15.17
2018-05-11T22:50:37.797Z,13.70
2018-05-11T22:53:06.031Z,13.53
2018-05-11T22:55:34.287Z,14.07
2018-05-11T22:58:02.546Z,14.33
2018-05-11T23:00:35.666Z,14.93
2018-05-11T23:03:04.503Z,14.77
2018-05-11T23:05:32.755Z,14.83
2018-05-11T23:08:01.768Z,15.57
2018-05-11T23:10:30.016Z,15.10
2018-05-11T23:12:59.012Z,15.27
2018-05-11T23:15:28.038Z,15.67
2018-05-11T23:17:56.274Z,16.13
2018-05-11T23:20:25.294Z,16.80
2018-05-11T23:22:53.543Z,16.37
2018-05-11T23:25:22.565Z,16.40
2018-05-11T23:27:50.833Z,15.73
2018-05-11T23:30:19.026Z,17.47
2018-05-11T23:32:47.318Z,16.20
2018-05-11T23:35:15.551Z,17.07
2018-05-11T23:37:43.823Z,17.17
2018-05-11T23:40:12.068Z,17.37
2018-05-11T23:42:40.311Z,16.90
2018-05-11T23:45:08.551Z,16.97
2018-05-11T23:47:36.803Z,15.43
2018-05-11T23:50:05.810Z,16.20
2018-05-11T23:52:34.568Z,15.73
2018-05-11T23:55:03.056Z,15.93
2018-05-11T23:57:32.078Z,16.03
